createdAt,value
2023-03-18T00:00:49.564Z,4.53
2023-03-18T00:03:16.288Z,4.53
2023-03-18T00:05:43.001Z,4.50
2023-03-18T00:08:09.773Z,4.60
2023-03-18T00:10:36.307Z,4.56
2023-03-18T00:13:04.519Z,4.63
2023-03-18T00:15:31.579Z,4.62
2023-03-18T00:17:59.789Z,4.64
2023-03-18T00:20:38.381Z,4.52
2023-03-18T00:23:08.635Z,4.61
2023-03-18T00:25:36.642Z,4.65
2023-03-18T00:28:07.415Z,4.64
2023-03-18T00:30:38.503Z,4.67
2023-03-18T00:33:05.285Z,4.75
2023-03-18T00:35:32.342Z,4.81
2023-03-18T00:38:00.419Z,4.52
2023-03-18T00:40:30.962Z,4.64
2023-03-18T00:43:07.663Z,4.67
2023-03-18T00:45:37.672Z,4.72
2023-03-18T00:48:04.758Z,4.73
2023-03-18T00:50:31.988Z,4.67
2023-03-18T00:52:59.605Z,4.72
2023-03-18T00:55:27.528Z,4.76
2023-03-18T00:57:54.460Z,4.74
2023-03-18T01:00:21.428Z,4.81
2023-03-18T01:02:49.264Z,4.63
2023-03-18T01:05:16.517Z,4.69
2023-03-18T01:07:43.573Z,4.66
2023-03-18T01:10:12.541Z,4.52
2023-03-18T01:12:41.140Z,4.70
2023-03-18T01:15:12.679Z,4.70
2023-03-18T01:17:39.322Z,4.51
2023-03-18T01:20:06.753Z,4.54
2023-03-18T01:22:33.278Z,4.65
2023-03-18T01:24:59.880Z,4.22
2023-03-18T01:27:33.427Z,4.44
2023-03-18T01:30:00.678Z,4.38
2023-03-18T01:32:28.813Z,4.49
2023-03-18T01:34:55.942Z,4.58
2023-03-18T01:39:58.330Z,4.64
2023-03-18T01:42:24.924Z,4.74
2023-03-18T01:45:21.804Z,4.72
2023-03-18T01:47:51.620Z,4.82
2023-03-18T01:50:23.071Z,4.96
2023-03-18T01:52:58.131Z,4.57
2023-03-18T01:55:26.736Z,4.82
2023-03-18T01:57:54.565Z,4.91
2023-03-18T02:00:21.977Z,4.84
2023-03-18T02:02:50.782Z,4.81
2023-03-18T02:05:22.255Z,4.97
2023-03-18T02:07:48.771Z,4.71
2023-03-18T02:10:27.942Z,4.69
2023-03-18T02:13:01.370Z,4.71
2023-03-18T02:15:35.505Z,4.80
2023-03-18T02:18:33.760Z,4.82
2023-03-18T02:21:18.950Z,4.97
2023-03-18T02:24:13.852Z,5.05
2023-03-18T02:26:50.381Z,4.75
2023-03-18T02:29:24.651Z,4.93
2023-03-18T02:32:02.799Z,5.12
2023-03-18T02:34:30.269Z,4.99
2023-03-18T02:36:57.869Z,5.09
2023-03-18T02:39:24.653Z,5.15
2023-03-18T02:41:53.312Z,5.22
2023-03-18T02:44:21.246Z,5.25
2023-03-18T02:47:18.731Z,5.19
2023-03-18T02:49:45.476Z,5.26
2023-03-18T02:52:13.666Z,5.31
2023-03-18T02:54:40.327Z,5.12
2023-03-18T02:57:07.456Z,5.23
2023-03-18T02:59:34.491Z,5.29
2023-03-18T03:02:02.130Z,5.16
2023-03-18T03:04:28.806Z,5.24
2023-03-18T03:06:56.785Z,5.25
2023-03-18T03:09:36.869Z,5.32
2023-03-18T03:12:05.189Z,5.29
2023-03-18T03:14:32.114Z,5.26
2023-03-18T03:17:01.353Z,5.30
2023-03-18T03:19:27.959Z,5.19
2023-03-18T03:21:55.401Z,5.01
2023-03-18T03:24:23.740Z,5.25
2023-03-18T03:26:50.441Z,5.15
2023-03-18T03:29:17.000Z,5.05
2023-03-18T03:31:43.561Z,5.22
2023-03-18T03:34:10.716Z,5.20
2023-03-18T03:36:37.434Z,5.32
2023-03-18T03:39:04.252Z,5.23
2023-03-18T03:41:34.479Z,5.36
2023-03-18T03:44:01.193Z,5.07
2023-03-18T03:46:27.833Z,5.30
2023-03-18T03:48:54.880Z,5.22
2023-03-18T03:51:22.125Z,5.31
2023-03-18T03:53:48.770Z,5.33
2023-03-18T03:56:15.514Z,5.29
2023-03-18T03:58:42.293Z,5.26
2023-03-18T04:01:08.886Z,5.25
2023-03-18T04:03:35.570Z,5.28
2023-03-18T04:06:06.725Z,5.29
2023-03-18T04:08:35.243Z,5.24
2023-03-18T04:11:03.415Z,5.30
2023-03-18T04:13:31.228Z,5.32
2023-03-18T04:15:57.771Z,4.86
2023-03-18T04:18:24.456Z,5.11
2023-03-18T04:20:50.992Z,5.05
2023-03-18T04:23:35.102Z,5.18
2023-03-18T04:26:01.838Z,5.15
2023-03-18T04:28:28.512Z,5.15
2023-03-18T04:30:55.439Z,4.95
2023-03-18T04:33:22.225Z,4.93
2023-03-18T04:35:49.450Z,4.77
2023-03-18T04:38:18.321Z,4.97
2023-03-18T04:40:46.279Z,5.06
2023-03-18T04:43:13.098Z,5.24
2023-03-18T04:45:39.985Z,5.23
2023-03-18T04:48:11.395Z,5.19
2023-03-18T04:50:40.875Z,5.31
2023-03-18T04:53:11.711Z,5.35
2023-03-18T04:55:38.382Z,5.33
2023-03-18T04:58:08.333Z,5.30
2023-03-18T05:00:39.560Z,5.20
2023-03-18T05:03:18.431Z,5.14
2023-03-18T05:05:45.576Z,4.82
2023-03-18T05:08:15.250Z,4.95
2023-03-18T05:10:42.668Z,5.01
2023-03-18T05:13:12.609Z,5.02
2023-03-18T05:15:39.197Z,5.09
2023-03-18T05:18:06.366Z,5.17
2023-03-18T05:20:33.875Z,5.05
2023-03-18T05:23:03.130Z,4.50
2023-03-18T05:25:49.022Z,4.24
2023-03-18T05:28:16.321Z,4.70
2023-03-18T05:30:50.500Z,4.37
2023-03-18T05:33:20.926Z,4.52
2023-03-18T05:35:53.526Z,4.48
2023-03-18T05:38:25.293Z,4.55
2023-03-18T05:40:52.154Z,4.53
2023-03-18T05:43:24.651Z,4.61
2023-03-18T05:45:55.129Z,4.64
2023-03-18T05:48:31.644Z,4.67
2023-03-18T05:51:04.312Z,4.70
2023-03-18T05:53:32.018Z,4.88
2023-03-18T05:56:08.722Z,4.93
2023-03-18T05:58:35.403Z,4.96
2023-03-18T06:01:27.532Z,5.00
2023-03-18T06:03:55.193Z,5.03
2023-03-18T06:06:22.211Z,5.00
2023-03-18T06:08:48.932Z,4.72
2023-03-18T06:11:15.785Z,4.60
2023-03-18T06:13:43.356Z,4.73
2023-03-18T06:16:10.837Z,4.82
2023-03-18T06:18:39.045Z,4.70
2023-03-18T06:21:09.054Z,4.86
2023-03-18T06:23:36.502Z,4.91
2023-03-18T06:26:04.398Z,4.67
2023-03-18T06:28:36.155Z,5.14
2023-03-18T06:31:08.691Z,5.26
2023-03-18T06:33:35.287Z,5.37
2023-03-18T06:36:02.980Z,5.27
2023-03-18T06:38:31.434Z,4.95
2023-03-18T06:40:59.875Z,5.18
2023-03-18T06:43:27.141Z,5.37
2023-03-18T06:45:54.208Z,5.45
2023-03-18T06:48:21.007Z,5.52
2023-03-18T06:50:49.760Z,5.69
2023-03-18T06:53:22.474Z,5.98
2023-03-18T06:55:49.973Z,5.92
2023-03-18T06:58:19.898Z,6.17
2023-03-18T07:00:56.602Z,6.32
2023-03-18T07:03:28.145Z,5.94
2023-03-18T07:05:55.950Z,6.44
2023-03-18T07:08:23.032Z,6.59
2023-03-18T07:10:52.678Z,6.71
2023-03-18T07:13:20.359Z,6.85
2023-03-18T07:15:48.094Z,7.08
2023-03-18T07:18:15.055Z,7.11
2023-03-18T07:20:41.962Z,7.17
2023-03-18T07:23:09.957Z,7.14
2023-03-18T07:25:36.873Z,7.01
2023-03-18T07:28:04.944Z,7.10
2023-03-18T07:30:31.834Z,7.21
2023-03-18T07:32:58.713Z,7.32
2023-03-18T07:35:26.677Z,7.40
2023-03-18T07:37:53.237Z,7.58
2023-03-18T07:40:20.809Z,7.76
2023-03-18T07:42:48.102Z,7.48
2023-03-18T07:45:14.641Z,7.63
2023-03-18T07:47:41.641Z,7.28
2023-03-18T07:50:09.671Z,7.76
2023-03-18T07:52:37.499Z,7.92
2023-03-18T07:55:04.687Z,7.93
2023-03-18T07:57:31.477Z,7.74
2023-03-18T07:59:58.052Z,7.90
2023-03-18T08:02:25.373Z,8.07
2023-03-18T08:04:52.656Z,8.18
2023-03-18T08:07:19.929Z,8.45
2023-03-18T08:09:46.877Z,8.55
2023-03-18T08:12:18.764Z,8.23
2023-03-18T08:14:46.697Z,8.71
2023-03-18T08:17:13.337Z,8.55
2023-03-18T08:19:40.072Z,8.21
2023-03-18T08:22:06.734Z,8.93
2023-03-18T08:24:33.525Z,8.84
2023-03-18T08:27:01.715Z,9.30
2023-03-18T08:29:28.257Z,9.41
2023-03-18T08:31:54.861Z,9.46
2023-03-18T08:34:21.898Z,8.86
2023-03-18T08:36:48.431Z,9.21
2023-03-18T08:39:15.910Z,8.95
2023-03-18T08:41:44.795Z,8.53
2023-03-18T08:44:12.468Z,8.42
2023-03-18T08:46:39.121Z,8.31
2023-03-18T08:49:06.963Z,8.44
2023-03-18T08:51:34.454Z,8.63
2023-03-18T08:54:01.072Z,8.63
2023-03-18T08:56:27.848Z,8.53
2023-03-18T08:58:54.594Z,8.65
2023-03-18T09:01:22.368Z,8.83
2023-03-18T09:03:50.698Z,8.50
2023-03-18T09:06:17.814Z,8.40
2023-03-18T09:08:44.820Z,8.39
2023-03-18T09:11:11.536Z,8.81
2023-03-18T09:13:39.304Z,8.62
2023-03-18T09:16:07.294Z,8.74
2023-03-18T09:18:35.338Z,8.92
2023-03-18T09:21:03.308Z,9.09
2023-03-18T09:23:30.083Z,9.25
2023-03-18T09:25:57.236Z,9.37
2023-03-18T09:28:23.970Z,9.59
2023-03-18T09:30:51.159Z,9.78
2023-03-18T09:33:17.921Z,9.66
2023-03-18T09:35:44.853Z,9.85
2023-03-18T09:38:16.701Z,10.32
2023-03-18T09:41:12.619Z,10.48
2023-03-18T09:44:04.033Z,10.79
2023-03-18T09:46:57.130Z,10.93
2023-03-18T09:49:38.986Z,10.86
2023-03-18T09:52:27.128Z,10.38
2023-03-18T09:55:03.379Z,11.04
2023-03-18T09:57:35.578Z,10.67
2023-03-18T10:00:09.190Z,10.98
2023-03-18T10:02:42.333Z,11.28
2023-03-18T10:05:19.647Z,11.63
2023-03-18T10:07:49.962Z,11.77
2023-03-18T10:10:27.977Z,11.45
2023-03-18T10:13:08.505Z,11.85
2023-03-18T10:15:42.684Z,12.28
2023-03-18T10:18:26.613Z,11.96
2023-03-18T10:21:05.440Z,12.36
2023-03-18T10:24:08.645Z,12.02
2023-03-18T10:26:45.109Z,11.39
2023-03-18T10:29:32.064Z,11.84
2023-03-18T10:32:03.467Z,11.45
2023-03-18T10:34:46.408Z,11.32
2023-03-18T10:37:35.909Z,11.68
2023-03-18T10:40:02.946Z,11.57
2023-03-18T10:42:33.008Z,11.56
2023-03-18T10:45:15.455Z,11.56
2023-03-18T10:47:47.025Z,11.39
2023-03-18T10:50:23.932Z,11.67
2023-03-18T10:53:04.604Z,11.76
2023-03-18T10:55:38.152Z,11.69
2023-03-18T10:58:15.416Z,11.45
2023-03-18T11:00:42.723Z,11.87
2023-03-18T11:12:05.757Z,11.74
2023-03-18T11:14:37.674Z,11.61
2023-03-18T11:17:17.899Z,11.88
2023-03-18T11:19:49.873Z,11.89
2023-03-18T11:22:23.914Z,12.28
2023-03-18T11:25:12.460Z,12.46
2023-03-18T11:27:41.629Z,12.16
2023-03-18T11:30:34.144Z,12.33
2023-03-18T11:33:10.503Z,12.48
2023-03-18T11:35:46.007Z,12.32
2023-03-18T11:38:34.055Z,12.31
2023-03-18T11:41:16.973Z,12.33
2023-03-18T11:44:05.628Z,12.36
2023-03-18T11:46:43.457Z,12.64
2023-03-18T11:49:15.572Z,12.44
2023-03-18T11:51:51.276Z,12.26
2023-03-18T11:54:34.994Z,12.57
2023-03-18T11:57:13.371Z,12.66
2023-03-18T11:59:56.498Z,12.62
2023-03-18T12:02:29.144Z,12.62
2023-03-18T12:05:03.787Z,12.23
2023-03-18T12:08:18.344Z,12.40
2023-03-18T12:10:51.303Z,12.46
2023-03-18T12:13:25.491Z,12.39
2023-03-18T12:16:01.492Z,12.54
2023-03-18T12:18:31.092Z,12.66
2023-03-18T12:21:09.941Z,12.86
2023-03-18T12:24:11.954Z,13.03
2023-03-18T12:27:27.372Z,12.80
2023-03-18T12:30:11.667Z,13.11
2023-03-18T12:32:42.612Z,12.95
2023-03-18T12:35:24.294Z,13.26
2023-03-18T12:38:00.071Z,13.63
2023-03-18T12:40:42.446Z,13.46
2023-03-18T12:43:28.450Z,13.80
2023-03-18T12:46:03.086Z,13.68
2023-03-18T12:48:44.170Z,13.78
2023-03-18T12:51:25.323Z,13.64
2023-03-18T12:54:10.207Z,13.68
2023-03-18T12:56:43.913Z,13.89
2023-03-18T12:59:21.835Z,13.94
2023-03-18T13:02:07.332Z,14.11
2023-03-18T13:04:39.316Z,14.24
2023-03-18T13:07:16.519Z,14.54
2023-03-18T13:10:15.724Z,14.57
2023-03-18T13:12:44.308Z,14.35
2023-03-18T13:15:35.813Z,14.18
2023-03-18T13:18:36.938Z,14.29
2023-03-18T13:21:05.442Z,14.06
2023-03-18T13:24:00.139Z,14.07
2023-03-18T13:26:51.126Z,13.88
2023-03-18T13:29:53.327Z,13.75
2023-03-18T13:32:22.907Z,13.86
2023-03-18T13:35:20.637Z,13.64
2023-03-18T13:38:17.300Z,13.57
2023-03-18T13:41:12.068Z,13.36
2023-03-18T13:43:42.842Z,12.85
2023-03-18T13:46:23.731Z,13.38
2023-03-18T13:48:59.664Z,13.64
2023-03-18T13:51:29.376Z,13.19
2023-03-18T13:54:00.592Z,13.08
2023-03-18T13:56:48.509Z,13.21
2023-03-18T13:59:35.308Z,13.48
2023-03-18T14:02:23.737Z,13.49
2023-03-18T14:04:52.099Z,13.59
2023-03-18T14:07:21.107Z,13.69
2023-03-18T14:10:15.272Z,14.00
2023-03-18T14:12:47.419Z,13.98
2023-03-18T14:15:14.678Z,13.34
2023-03-18T14:17:48.548Z,14.01
2023-03-18T14:20:15.000Z,14.14
2023-03-18T14:22:42.741Z,14.23
2023-03-18T14:25:18.260Z,14.69
2023-03-18T14:27:47.671Z,14.66
2023-03-18T14:30:29.583Z,14.08
2023-03-18T14:33:05.246Z,13.70
2023-03-18T14:36:01.883Z,14.14
2023-03-18T14:38:43.013Z,14.23
2023-03-18T14:41:32.545Z,13.91
2023-03-18T14:44:09.099Z,13.84
2023-03-18T14:46:43.595Z,13.54
2023-03-18T14:49:44.683Z,13.30
2023-03-18T14:52:39.818Z,13.88
2023-03-18T14:55:17.170Z,13.23
2023-03-18T14:57:44.917Z,13.21
2023-03-18T15:00:16.608Z,13.10
2023-03-18T15:02:45.257Z,13.55
2023-03-18T15:05:19.240Z,13.40
2023-03-18T15:07:51.299Z,13.25
2023-03-18T15:10:32.897Z,13.78
2023-03-18T15:13:14.733Z,13.74
2023-03-18T15:15:44.570Z,13.61
2023-03-18T15:18:20.640Z,13.48
2023-03-18T15:20:51.247Z,13.74
2023-03-18T15:23:24.459Z,13.43
2023-03-18T15:25:51.500Z,13.28
2023-03-18T15:28:21.505Z,13.64
2023-03-18T15:30:54.488Z,13.34
2023-03-18T15:33:29.552Z,13.47
2023-03-18T15:36:03.247Z,13.04
2023-03-18T15:38:31.202Z,13.19
2023-03-18T15:41:02.909Z,13.52
2023-03-18T15:43:40.291Z,13.54
2023-03-18T15:46:28.575Z,13.45
2023-03-18T15:48:56.556Z,13.78
2023-03-18T15:51:42.339Z,13.66
2023-03-18T15:54:16.433Z,13.26
2023-03-18T15:56:46.490Z,13.32
2023-03-18T15:59:14.430Z,13.22
2023-03-18T16:01:40.979Z,13.48
2023-03-18T16:04:16.549Z,13.48
2023-03-18T16:06:44.397Z,13.35
2023-03-18T16:09:15.790Z,13.30
2023-03-18T16:11:43.663Z,13.32
2023-03-18T16:14:16.019Z,13.23
2023-03-18T16:16:42.581Z,13.05
2023-03-18T16:19:25.018Z,12.44
2023-03-18T16:21:52.797Z,12.67
2023-03-18T16:24:20.076Z,12.24
2023-03-18T16:26:47.052Z,12.29
2023-03-18T16:29:33.584Z,12.16
2023-03-18T16:32:01.087Z,12.26
2023-03-18T16:34:27.942Z,12.03
2023-03-18T16:36:55.271Z,11.77
2023-03-18T16:39:34.043Z,12.00
2023-03-18T16:42:02.253Z,11.77
2023-03-18T16:44:28.811Z,11.67
2023-03-18T16:46:57.562Z,11.51
2023-03-18T16:49:29.238Z,11.43
2023-03-18T16:51:56.866Z,11.48
2023-03-18T16:54:26.458Z,11.24
2023-03-18T16:57:02.736Z,11.16
2023-03-18T16:59:33.661Z,11.22
2023-03-18T17:02:00.703Z,10.84
2023-03-18T17:04:35.613Z,10.65
2023-03-18T17:07:04.857Z,10.91
2023-03-18T17:09:31.991Z,10.64
2023-03-18T17:12:03.050Z,10.70
2023-03-18T17:14:37.735Z,10.57
2023-03-18T17:17:18.215Z,10.35
2023-03-18T17:19:44.762Z,10.29
2023-03-18T17:22:21.633Z,10.43
2023-03-18T17:24:48.879Z,10.31
2023-03-18T17:27:22.095Z,10.13
2023-03-18T17:29:49.163Z,10.03
2023-03-18T17:32:16.602Z,9.80
2023-03-18T17:34:46.534Z,9.91
2023-03-18T17:37:13.011Z,9.77
2023-03-18T17:39:40.685Z,9.91
2023-03-18T17:42:29.681Z,9.51
2023-03-18T17:44:59.521Z,9.48
2023-03-18T17:47:26.255Z,9.10
2023-03-18T17:49:53.800Z,9.12
2023-03-18T17:52:21.729Z,9.09
2023-03-18T17:54:48.342Z,9.15
2023-03-18T17:57:19.346Z,9.09
2023-03-18T17:59:46.546Z,9.17
2023-03-18T18:02:17.649Z,9.25
2023-03-18T18:04:51.483Z,9.05
2023-03-18T18:07:21.834Z,9.13
2023-03-18T18:09:49.573Z,9.07
2023-03-18T18:12:25.012Z,9.23
2023-03-18T18:14:51.723Z,9.46
2023-03-18T18:17:19.167Z,9.54
2023-03-18T18:19:46.309Z,9.46
2023-03-18T18:22:23.003Z,9.13
2023-03-18T18:24:50.418Z,8.87
2023-03-18T18:27:17.087Z,9.01
2023-03-18T18:29:45.921Z,9.14
2023-03-18T18:32:13.181Z,9.00
2023-03-18T18:34:39.772Z,9.22
2023-03-18T18:37:06.696Z,8.63
2023-03-18T18:39:33.309Z,8.70
2023-03-18T18:41:59.816Z,8.49
2023-03-18T18:44:26.575Z,8.77
2023-03-18T18:46:53.830Z,8.33
2023-03-18T18:49:24.637Z,8.41
2023-03-18T18:51:56.118Z,8.31
2023-03-18T18:54:24.515Z,8.20
2023-03-18T18:56:54.042Z,7.88
2023-03-18T18:59:25.936Z,8.15
2023-03-18T19:01:55.462Z,8.10
2023-03-18T19:04:22.095Z,7.60
2023-03-18T19:06:50.800Z,7.93
2023-03-18T19:09:20.541Z,7.46
2023-03-18T19:11:47.575Z,7.72
2023-03-18T19:14:28.327Z,7.82
2023-03-18T19:16:58.554Z,7.79
2023-03-18T19:19:28.571Z,7.73
2023-03-18T19:21:55.433Z,7.70
2023-03-18T19:24:38.135Z,7.56
2023-03-18T19:27:19.886Z,7.22
2023-03-18T19:29:47.231Z,7.44
2023-03-18T19:32:19.694Z,7.47
2023-03-18T19:34:47.688Z,7.54
2023-03-18T19:37:22.541Z,7.33
2023-03-18T19:39:49.476Z,7.41
2023-03-18T19:42:18.373Z,7.70
2023-03-18T19:44:45.662Z,7.46
2023-03-18T19:47:19.164Z,7.37
2023-03-18T19:49:46.019Z,7.34
2023-03-18T19:52:17.012Z,7.32
2023-03-18T19:54:43.872Z,7.17
2023-03-18T19:57:20.640Z,7.20
2023-03-18T19:59:48.737Z,7.14
2023-03-18T20:02:28.737Z,7.00
2023-03-18T20:04:58.009Z,7.07
2023-03-18T20:07:27.432Z,7.03
2023-03-18T20:09:54.886Z,6.90
2023-03-18T20:12:37.627Z,6.89
2023-03-18T20:15:05.675Z,6.88
2023-03-18T20:17:37.316Z,6.87
2023-03-18T20:20:05.472Z,6.79
2023-03-18T20:22:41.104Z,6.56
2023-03-18T20:25:15.690Z,6.65
2023-03-18T20:27:42.383Z,6.65
2023-03-18T20:30:27.736Z,6.55
2023-03-18T20:32:54.752Z,6.59
2023-03-18T20:35:21.743Z,6.62
2023-03-18T20:37:48.626Z,6.65
2023-03-18T20:40:23.249Z,6.68
2023-03-18T20:42:50.107Z,6.63
2023-03-18T20:45:17.665Z,6.59
2023-03-18T20:47:45.553Z,6.51
2023-03-18T20:50:17.958Z,6.64
2023-03-18T20:52:47.341Z,6.62
2023-03-18T20:55:26.672Z,6.74
2023-03-18T20:57:54.217Z,6.74
2023-03-18T21:00:24.585Z,6.84
2023-03-18T21:02:53.502Z,6.88
2023-03-18T21:05:20.690Z,6.92
2023-03-18T21:07:48.108Z,6.60
2023-03-18T21:10:20.702Z,6.76
2023-03-18T21:12:48.353Z,6.88
2023-03-18T21:15:21.465Z,6.91
2023-03-18T21:17:49.018Z,6.89
2023-03-18T21:20:22.392Z,6.86
2023-03-18T21:22:50.754Z,6.90
2023-03-18T21:25:26.520Z,6.93
2023-03-18T21:27:53.758Z,6.90
2023-03-18T21:30:22.554Z,6.87
2023-03-18T21:32:50.936Z,6.88
2023-03-18T21:35:23.428Z,6.91
2023-03-18T21:37:50.878Z,6.91
2023-03-18T21:40:20.497Z,6.76
2023-03-18T21:42:48.988Z,6.66
2023-03-18T21:45:19.068Z,6.51
2023-03-18T21:47:45.991Z,6.46
2023-03-18T21:50:26.989Z,6.39
2023-03-18T21:52:54.654Z,6.43
2023-03-18T21:55:22.095Z,6.38
2023-03-18T21:57:49.526Z,6.28
2023-03-18T22:00:20.024Z,6.30
2023-03-18T22:02:47.991Z,6.34
2023-03-18T22:05:23.134Z,6.29
2023-03-18T22:07:51.471Z,6.37
2023-03-18T22:10:21.175Z,6.32
2023-03-18T22:12:47.763Z,6.06
2023-03-18T22:15:26.773Z,5.92
2023-03-18T22:17:53.371Z,6.12
2023-03-18T22:20:20.000Z,6.21
2023-03-18T22:22:47.274Z,6.10
2023-03-18T22:25:31.123Z,5.91
2023-03-18T22:27:58.530Z,5.93
2023-03-18T22:30:27.327Z,6.10
2023-03-18T22:32:54.924Z,6.13
2023-03-18T22:35:24.988Z,6.13
2023-03-18T22:37:52.389Z,6.11
2023-03-18T22:40:25.348Z,6.13
2023-03-18T22:42:57.020Z,6.15
2023-03-18T22:45:27.494Z,5.99
2023-03-18T22:48:16.927Z,6.08
2023-03-18T22:50:43.759Z,6.11
2023-03-18T22:53:19.327Z,6.10
2023-03-18T22:55:46.892Z,5.98
2023-03-18T22:58:19.700Z,5.98
2023-03-18T23:00:47.261Z,5.90
2023-03-18T23:03:18.451Z,5.92
2023-03-18T23:05:46.970Z,5.99
2023-03-18T23:08:14.676Z,6.02
2023-03-18T23:10:41.928Z,5.98
2023-03-18T23:13:25.636Z,5.98
2023-03-18T23:15:52.216Z,5.95
2023-03-18T23:18:19.898Z,5.74
2023-03-18T23:20:48.769Z,5.69
2023-03-18T23:23:16.150Z,5.64
2023-03-18T23:25:44.247Z,5.64
2023-03-18T23:28:11.236Z,5.57
2023-03-18T23:30:40.060Z,5.61
2023-03-18T23:33:07.797Z,5.54
2023-03-18T23:35:34.717Z,5.47
2023-03-18T23:38:01.461Z,5.38
2023-03-18T23:40:28.303Z,5.36
2023-03-18T23:42:55.300Z,5.05
2023-03-18T23:45:24.494Z,5.10
2023-03-18T23:47:51.611Z,5.12
2023-03-18T23:50:18.292Z,5.15
2023-03-18T23:52:44.906Z,5.16
2023-03-18T23:55:34.061Z,5.11
2023-03-18T23:58:01.344Z,5.12
